sensor_id;sensor_type;location;lat;lon;timestamp;P1;durP1;ratioP1;P2;durP2;ratioP2
11328;SDS011;5719;42.714;23.732;2023-03-11T00:02:09;4.88;;;3.85;;
11328;SDS011;5719;42.714;23.732;2023-03-11T00:04:36;6.15;;;4.38;;
11328;SDS011;5719;42.714;23.732;2023-03-11T00:07:04;3.95;;;3.55;;
11328;SDS011;5719;42.714;23.732;2023-03-11T00:09:32;5.53;;;3.60;;
11328;SDS011;5719;42.714;23.732;2023-03-11T00:11:59;5.75;;;4.18;;
11328;SDS011;5719;42.714;23.732;2023-03-11T00:14:26;8.43;;;5.68;;
11328;SDS011;5719;42.714;23.732;2023-03-11T00:16:54;19.02;;;8.30;;
11328;SDS011;5719;42.714;23.732;2023-03-11T00:19:21;14.82;;;6.53;;
11328;SDS011;5719;42.714;23.732;2023-03-11T00:21:48;12.57;;;6.53;;
11328;SDS011;5719;42.714;23.732;2023-03-11T00:24:15;9.77;;;5.78;;
11328;SDS011;5719;42.714;23.732;2023-03-11T00:26:41;10.52;;;5.40;;
11328;SDS011;5719;42.714;23.732;2023-03-11T00:29:08;9.25;;;4.95;;
11328;SDS011;5719;42.714;23.732;2023-03-11T00:31:35;11.30;;;5.80;;
11328;SDS011;5719;42.714;23.732;2023-03-11T00:34:03;26.25;;;10.02;;
11328;SDS011;5719;42.714;23.732;2023-03-11T00:36:31;23.15;;;9.30;;
11328;SDS011;5719;42.714;23.732;2023-03-11T00:38:59;13.57;;;7.32;;
11328;SDS011;5719;42.714;23.732;2023-03-11T00:41:30;12.23;;;7.93;;
11328;SDS011;5719;42.714;23.732;2023-03-11T00:43:57;12.43;;;5.88;;
11328;SDS011;5719;42.714;23.732;2023-03-11T00:46:24;8.18;;;5.00;;
11328;SDS011;5719;42.714;23.732;2023-03-11T00:48:51;5.20;;;3.25;;
11328;SDS011;5719;42.714;23.732;2023-03-11T00:51:19;4.72;;;2.55;;
11328;SDS011;5719;42.714;23.732;2023-03-11T00:53:46;2.33;;;1.90;;
11328;SDS011;5719;42.714;23.732;2023-03-11T00:56:13;3.20;;;1.83;;
11328;SDS011;5719;42.714;23.732;2023-03-11T00:58:42;7.85;;;1.80;;
11328;SDS011;5719;42.714;23.732;2023-03-11T01:01:10;2.55;;;1.55;;
11328;SDS011;5719;42.714;23.732;2023-03-11T01:03:38;2.65;;;1.20;;
11328;SDS011;5719;42.714;23.732;2023-03-11T01:06:05;2.17;;;1.88;;
11328;SDS011;5719;42.714;23.732;2023-03-11T01:08:34;2.80;;;2.03;;
11328;SDS011;5719;42.714;23.732;2023-03-11T01:11:01;4.38;;;2.00;;
11328;SDS011;5719;42.714;23.732;2023-03-11T01:13:29;2.10;;;1.90;;
11328;SDS011;5719;42.714;23.732;2023-03-11T01:15:57;3.40;;;1.92;;
11328;SDS011;5719;42.714;23.732;2023-03-11T01:18:24;2.28;;;1.90;;
11328;SDS011;5719;42.714;23.732;2023-03-11T01:20:51;2.15;;;1.60;;
11328;SDS011;5719;42.714;23.732;2023-03-11T01:23:19;1.60;;;1.50;;
11328;SDS011;5719;42.714;23.732;2023-03-11T01:25:47;4.20;;;1.70;;
11328;SDS011;5719;42.714;23.732;2023-03-11T01:28:14;3.25;;;1.50;;
11328;SDS011;5719;42.714;23.732;2023-03-11T01:30:41;2.35;;;1.33;;
11328;SDS011;5719;42.714;23.732;2023-03-11T01:33:12;1.30;;;1.20;;
11328;SDS011;5719;42.714;23.732;2023-03-11T01:35:40;1.30;;;1.20;;
11328;SDS011;5719;42.714;23.732;2023-03-11T01:38:07;1.30;;;1.20;;
11328;SDS011;5719;42.714;23.732;2023-03-11T01:40:36;1.10;;;1.00;;
11328;SDS011;5719;42.714;23.732;2023-03-11T01:43:33;1.58;;;1.20;;
11328;SDS011;5719;42.714;23.732;2023-03-11T01:46:15;0.95;;;0.90;;
11328;SDS011;5719;42.714;23.732;2023-03-11T01:48:45;2.08;;;0.95;;
11328;SDS011;5719;42.714;23.732;2023-03-11T01:51:14;1.15;;;1.10;;
11328;SDS011;5719;42.714;23.732;2023-03-11T01:53:45;0.93;;;0.80;;
11328;SDS011;5719;42.714;23.732;2023-03-11T01:56:12;1.08;;;1.00;;
11328;SDS011;5719;42.714;23.732;2023-03-11T01:58:41;1.02;;;1.00;;
11328;SDS011;5719;42.714;23.732;2023-03-11T02:01:13;1.40;;;0.90;;
11328;SDS011;5719;42.714;23.732;2023-03-11T02:03:40;1.60;;;0.90;;
11328;SDS011;5719;42.714;23.732;2023-03-11T02:06:09;1.95;;;0.90;;
11328;SDS011;5719;42.714;23.732;2023-03-11T02:08:38;2.53;;;0.85;;
11328;SDS011;5719;42.714;23.732;2023-03-11T02:11:07;1.17;;;0.98;;
11328;SDS011;5719;42.714;23.732;2023-03-11T02:13:37;1.90;;;1.10;;
11328;SDS011;5719;42.714;23.732;2023-03-11T02:16:08;3.25;;;1.00;;
11328;SDS011;5719;42.714;23.732;2023-03-11T02:18:35;1.73;;;1.02;;
11328;SDS011;5719;42.714;23.732;2023-03-11T02:21:05;0.85;;;0.85;;
11328;SDS011;5719;42.714;23.732;2023-03-11T02:23:41;0.80;;;0.80;;
11328;SDS011;5719;42.714;23.732;2023-03-11T02:26:15;0.77;;;0.77;;
11328;SDS011;5719;42.714;23.732;2023-03-11T02:28:48;1.52;;;0.90;;
11328;SDS011;5719;42.714;23.732;2023-03-11T02:31:17;1.00;;;1.00;;
11328;SDS011;5719;42.714;23.732;2023-03-11T02:33:45;1.10;;;1.00;;
11328;SDS011;5719;42.714;23.732;2023-03-11T02:36:34;1.10;;;1.00;;
11328;SDS011;5719;42.714;23.732;2023-03-11T02:39:03;2.70;;;1.80;;
11328;SDS011;5719;42.714;23.732;2023-03-11T02:41:32;1.85;;;1.40;;
11328;SDS011;5719;42.714;23.732;2023-03-11T02:44:03;3.17;;;2.80;;
11328;SDS011;5719;42.714;23.732;2023-03-11T02:46:33;2.70;;;1.90;;
11328;SDS011;5719;42.714;23.732;2023-03-11T02:49:00;2.10;;;1.90;;
11328;SDS011;5719;42.714;23.732;2023-03-11T02:51:28;2.08;;;1.63;;
11328;SDS011;5719;42.714;23.732;2023-03-11T02:53:55;2.67;;;2.30;;
11328;SDS011;5719;42.714;23.732;2023-03-11T02:56:26;2.60;;;2.10;;
11328;SDS011;5719;42.714;23.732;2023-03-11T02:58:53;2.42;;;1.63;;
11328;SDS011;5719;42.714;23.732;2023-03-11T03:01:21;5.07;;;2.33;;
11328;SDS011;5719;42.714;23.732;2023-03-11T03:03:48;4.55;;;2.22;;
11328;SDS011;5719;42.714;23.732;2023-03-11T03:06:15;2.25;;;1.95;;
11328;SDS011;5719;42.714;23.732;2023-03-11T03:08:42;3.60;;;2.53;;
11328;SDS011;5719;42.714;23.732;2023-03-11T03:11:08;2.40;;;2.20;;
11328;SDS011;5719;42.714;23.732;2023-03-11T03:13:35;3.45;;;2.40;;
11328;SDS011;5719;42.714;23.732;2023-03-11T03:16:02;3.72;;;2.72;;
11328;SDS011;5719;42.714;23.732;2023-03-11T03:18:31;1.92;;;1.83;;
11328;SDS011;5719;42.714;23.732;2023-03-11T03:20:58;3.10;;;2.38;;
11328;SDS011;5719;42.714;23.732;2023-03-11T03:23:24;2.60;;;2.40;;
11328;SDS011;5719;42.714;23.732;2023-03-11T03:25:51;1.70;;;1.60;;
11328;SDS011;5719;42.714;23.732;2023-03-11T03:28:18;2.58;;;1.55;;
11328;SDS011;5719;42.714;23.732;2023-03-11T03:30:45;1.63;;;1.52;;
11328;SDS011;5719;42.714;23.732;2023-03-11T03:33:12;1.73;;;1.40;;
11328;SDS011;5719;42.714;23.732;2023-03-11T03:35:41;1.63;;;1.52;;
11328;SDS011;5719;42.714;23.732;2023-03-11T03:38:09;1.90;;;1.50;;
11328;SDS011;5719;42.714;23.732;2023-03-11T03:40:36;4.63;;;0.90;;
11328;SDS011;5719;42.714;23.732;2023-03-11T03:43:03;0.70;;;0.70;;
11328;SDS011;5719;42.714;23.732;2023-03-11T03:45:30;0.95;;;0.95;;
11328;SDS011;5719;42.714;23.732;2023-03-11T03:47:56;3.75;;;0.80;;
11328;SDS011;5719;42.714;23.732;2023-03-11T03:50:23;1.00;;;0.90;;
11328;SDS011;5719;42.714;23.732;2023-03-11T03:52:51;3.25;;;0.90;;
11328;SDS011;5719;42.714;23.732;2023-03-11T03:55:18;0.80;;;0.80;;
11328;SDS011;5719;42.714;23.732;2023-03-11T03:57:45;1.25;;;0.93;;
11328;SDS011;5719;42.714;23.732;2023-03-11T04:00:12;0.90;;;0.90;;
11328;SDS011;5719;42.714;23.732;2023-03-11T04:02:41;1.95;;;1.20;;
11328;SDS011;5719;42.714;23.732;2023-03-11T04:05:08;2.33;;;1.33;;
11328;SDS011;5719;42.714;23.732;2023-03-11T04:07:35;1.48;;;1.38;;
11328;SDS011;5719;42.714;23.732;2023-03-11T04:10:04;2.08;;;1.58;;
11328;SDS011;5719;42.714;23.732;2023-03-11T04:12:32;2.90;;;2.13;;
11328;SDS011;5719;42.714;23.732;2023-03-11T04:14:59;2.30;;;1.55;;
11328;SDS011;5719;42.714;23.732;2023-03-11T04:17:26;1.65;;;1.55;;
11328;SDS011;5719;42.714;23.732;2023-03-11T04:19:52;1.58;;;1.48;;
11328;SDS011;5719;42.714;23.732;2023-03-11T04:22:19;1.85;;;1.70;;
11328;SDS011;5719;42.714;23.732;2023-03-11T04:24:46;1.85;;;1.67;;
11328;SDS011;5719;42.714;23.732;2023-03-11T04:27:14;1.60;;;1.50;;
11328;SDS011;5719;42.714;23.732;2023-03-11T04:29:41;2.35;;;1.70;;
11328;SDS011;5719;42.714;23.732;2023-03-11T04:32:08;1.60;;;1.50;;
11328;SDS011;5719;42.714;23.732;2023-03-11T04:34:35;1.70;;;1.60;;
11328;SDS011;5719;42.714;23.732;2023-03-11T04:37:02;4.72;;;1.83;;
11328;SDS011;5719;42.714;23.732;2023-03-11T04:39:29;4.90;;;1.85;;
11328;SDS011;5719;42.714;23.732;2023-03-11T04:41:56;2.28;;;2.08;;
11328;SDS011;5719;42.714;23.732;2023-03-11T04:44:24;3.30;;;1.98;;
11328;SDS011;5719;42.714;23.732;2023-03-11T04:46:51;2.53;;;2.33;;
11328;SDS011;5719;42.714;23.732;2023-03-11T04:49:18;5.68;;;1.95;;
11328;SDS011;5719;42.714;23.732;2023-03-11T04:51:44;2.28;;;1.88;;
11328;SDS011;5719;42.714;23.732;2023-03-11T04:54:11;2.20;;;1.80;;
11328;SDS011;5719;42.714;23.732;2023-03-11T04:56:38;1.80;;;1.70;;
11328;SDS011;5719;42.714;23.732;2023-03-11T04:59:05;2.10;;;1.90;;
11328;SDS011;5719;42.714;23.732;2023-03-11T05:01:33;2.83;;;2.17;;
11328;SDS011;5719;42.714;23.732;2023-03-11T05:04:00;3.17;;;2.10;;
11328;SDS011;5719;42.714;23.732;2023-03-11T05:06:27;2.60;;;2.40;;
11328;SDS011;5719;42.714;23.732;2023-03-11T05:08:54;2.20;;;2.00;;
11328;SDS011;5719;42.714;23.732;2023-03-11T05:11:21;1.95;;;1.85;;
11328;SDS011;5719;42.714;23.732;2023-03-11T05:13:48;2.20;;;2.00;;
11328;SDS011;5719;42.714;23.732;2023-03-11T05:16:14;2.13;;;1.90;;
11328;SDS011;5719;42.714;23.732;2023-03-11T05:18:43;4.70;;;2.20;;
11328;SDS011;5719;42.714;23.732;2023-03-11T05:21:10;8.27;;;2.30;;
11328;SDS011;5719;42.714;23.732;2023-03-11T05:23:37;2.10;;;1.90;;
11328;SDS011;5719;42.714;23.732;2023-03-11T05:26:04;3.08;;;1.80;;
11328;SDS011;5719;42.714;23.732;2023-03-11T05:28:32;1.50;;;1.40;;
11328;SDS011;5719;42.714;23.732;2023-03-11T05:30:59;4.38;;;1.75;;
11328;SDS011;5719;42.714;23.732;2023-03-11T05:33:26;1.70;;;1.60;;
11328;SDS011;5719;42.714;23.732;2023-03-11T05:36:03;4.68;;;2.42;;
11328;SDS011;5719;42.714;23.732;2023-03-11T05:38:33;3.08;;;1.92;;
11328;SDS011;5719;42.714;23.732;2023-03-11T05:41:00;7.85;;;2.80;;
11328;SDS011;5719;42.714;23.732;2023-03-11T05:43:27;2.75;;;2.55;;
11328;SDS011;5719;42.714;23.732;2023-03-11T05:45:54;2.28;;;2.08;;
11328;SDS011;5719;42.714;23.732;2023-03-11T05:48:20;2.40;;;2.17;;
11328;SDS011;5719;42.714;23.732;2023-03-11T05:50:47;2.80;;;2.00;;
11328;SDS011;5719;42.714;23.732;2023-03-11T05:53:16;1.98;;;1.63;;
11328;SDS011;5719;42.714;23.732;2023-03-11T05:55:42;1.80;;;1.52;;
11328;SDS011;5719;42.714;23.732;2023-03-11T05:58:10;1.88;;;1.33;;
11328;SDS011;5719;42.714;23.732;2023-03-11T06:00:37;1.98;;;1.50;;
11328;SDS011;5719;42.714;23.732;2023-03-11T06:03:04;3.65;;;1.88;;
11328;SDS011;5719;42.714;23.732;2023-03-11T06:05:31;3.45;;;1.60;;
11328;SDS011;5719;42.714;23.732;2023-03-11T06:07:58;3.67;;;1.75;;
11328;SDS011;5719;42.714;23.732;2023-03-11T06:10:26;1.92;;;1.65;;
11328;SDS011;5719;42.714;23.732;2023-03-11T06:12:53;5.85;;;1.23;;
11328;SDS011;5719;42.714;23.732;2023-03-11T06:15:20;1.77;;;1.67;;
11328;SDS011;5719;42.714;23.732;2023-03-11T06:17:47;2.75;;;2.33;;
11328;SDS011;5719;42.714;23.732;2023-03-11T06:20:14;2.08;;;1.88;;
11328;SDS011;5719;42.714;23.732;2023-03-11T06:22:41;1.90;;;1.77;;
11328;SDS011;5719;42.714;23.732;2023-03-11T06:25:08;1.83;;;1.38;;
11328;SDS011;5719;42.714;23.732;2023-03-11T06:27:38;0.90;;;0.80;;
11328;SDS011;5719;42.714;23.732;2023-03-11T06:30:05;0.77;;;0.77;;
11328;SDS011;5719;42.714;23.732;2023-03-11T06:32:33;0.77;;;0.65;;
11328;SDS011;5719;42.714;23.732;2023-03-11T06:35:01;1.30;;;1.10;;
11328;SDS011;5719;42.714;23.732;2023-03-11T06:37:28;1.65;;;1.40;;
11328;SDS011;5719;42.714;23.732;2023-03-11T06:39:55;3.95;;;1.98;;
11328;SDS011;5719;42.714;23.732;2023-03-11T06:42:22;6.05;;;1.60;;
11328;SDS011;5719;42.714;23.732;2023-03-11T06:44:50;2.30;;;1.38;;
11328;SDS011;5719;42.714;23.732;2023-03-11T06:47:18;1.83;;;0.90;;
11328;SDS011;5719;42.714;23.732;2023-03-11T06:49:45;0.50;;;0.50;;
11328;SDS011;5719;42.714;23.732;2023-03-11T06:52:12;0.60;;;0.47;;
11328;SDS011;5719;42.714;23.732;2023-03-11T06:54:39;0.63;;;0.50;;
11328;SDS011;5719;42.714;23.732;2023-03-11T06:57:06;0.50;;;0.50;;
11328;SDS011;5719;42.714;23.732;2023-03-11T06:59:33;0.57;;;0.52;;
11328;SDS011;5719;42.714;23.732;2023-03-11T07:02:02;1.95;;;0.88;;
11328;SDS011;5719;42.714;23.732;2023-03-11T07:04:30;0.47;;;0.47;;
11328;SDS011;5719;42.714;23.732;2023-03-11T07:06:57;1.60;;;0.60;;
11328;SDS011;5719;42.714;23.732;2023-03-11T07:09:24;0.80;;;0.60;;
11328;SDS011;5719;42.714;23.732;2023-03-11T07:11:53;2.30;;;0.50;;
11328;SDS011;5719;42.714;23.732;2023-03-11T07:14:20;0.80;;;0.80;;
11328;SDS011;5719;42.714;23.732;2023-03-11T07:16:47;1.63;;;0.50;;
11328;SDS011;5719;42.714;23.732;2023-03-11T07:19:16;0.77;;;0.47;;
11328;SDS011;5719;42.714;23.732;2023-03-11T07:21:43;0.68;;;0.60;;
11328;SDS011;5719;42.714;23.732;2023-03-11T07:24:10;4.45;;;1.00;;
11328;SDS011;5719;42.714;23.732;2023-03-11T07:26:38;1.33;;;1.00;;
11328;SDS011;5719;42.714;23.732;2023-03-11T07:29:06;5.10;;;1.98;;
11328;SDS011;5719;42.714;23.732;2023-03-11T07:31:34;1.05;;;0.98;;
11328;SDS011;5719;42.714;23.732;2023-03-11T07:34:02;5.18;;;2.78;;
11328;SDS011;5719;42.714;23.732;2023-03-11T07:36:37;0.40;;;0.40;;
11328;SDS011;5719;42.714;23.732;2023-03-11T07:39:06;1.60;;;0.40;;
11328;SDS011;5719;42.714;23.732;2023-03-11T07:41:33;0.55;;;0.50;;
11328;SDS011;5719;42.714;23.732;2023-03-11T07:44:02;0.43;;;0.43;;
11328;SDS011;5719;42.714;23.732;2023-03-11T07:46:29;1.65;;;0.40;;
11328;SDS011;5719;42.714;23.732;2023-03-11T07:48:57;1.65;;;0.35;;
11328;SDS011;5719;42.714;23.732;2023-03-11T07:51:25;1.35;;;0.30;;
11328;SDS011;5719;42.714;23.732;2023-03-11T07:53:55;0.80;;;0.60;;
11328;SDS011;5719;42.714;23.732;2023-03-11T07:56:25;0.95;;;0.73;;
11328;SDS011;5719;42.714;23.732;2023-03-11T07:58:53;0.50;;;0.50;;
11328;SDS011;5719;42.714;23.732;2023-03-11T08:01:21;0.65;;;0.65;;
11328;SDS011;5719;42.714;23.732;2023-03-11T08:03:49;0.40;;;0.40;;
11328;SDS011;5719;42.714;23.732;2023-03-11T08:06:21;1.33;;;0.80;;
11328;SDS011;5719;42.714;23.732;2023-03-11T08:08:49;0.30;;;0.30;;
11328;SDS011;5719;42.714;23.732;2023-03-11T08:11:18;0.40;;;0.40;;
11328;SDS011;5719;42.714;23.732;2023-03-11T08:13:46;0.65;;;0.55;;
11328;SDS011;5719;42.714;23.732;2023-03-11T08:16:15;0.60;;;0.60;;
11328;SDS011;5719;42.714;23.732;2023-03-11T08:18:43;0.52;;;0.52;;
11328;SDS011;5719;42.714;23.732;2023-03-11T08:21:13;2.72;;;0.45;;
11328;SDS011;5719;42.714;23.732;2023-03-11T08:23:41;2.00;;;0.40;;
11328;SDS011;5719;42.714;23.732;2023-03-11T08:26:09;0.47;;;0.45;;
11328;SDS011;5719;42.714;23.732;2023-03-11T08:28:38;0.75;;;0.50;;
11328;SDS011;5719;42.714;23.732;2023-03-11T08:31:10;0.40;;;0.40;;
11328;SDS011;5719;42.714;23.732;2023-03-11T08:33:38;1.15;;;0.40;;
11328;SDS011;5719;42.714;23.732;2023-03-11T08:36:05;0.40;;;0.30;;
11328;SDS011;5719;42.714;23.732;2023-03-11T08:38:32;0.20;;;0.20;;
11328;SDS011;5719;42.714;23.732;2023-03-11T08:40:59;0.30;;;0.30;;
11328;SDS011;5719;42.714;23.732;2023-03-11T08:43:26;0.30;;;0.30;;
11328;SDS011;5719;42.714;23.732;2023-03-11T08:45:54;0.20;;;0.20;;
11328;SDS011;5719;42.714;23.732;2023-03-11T08:48:21;3.85;;;0.30;;
11328;SDS011;5719;42.714;23.732;2023-03-11T08:50:49;0.40;;;0.40;;
11328;SDS011;5719;42.714;23.732;2023-03-11T08:53:16;0.38;;;0.38;;
11328;SDS011;5719;42.714;23.732;2023-03-11T08:55:43;0.98;;;0.80;;
11328;SDS011;5719;42.714;23.732;2023-03-11T08:58:10;0.43;;;0.30;;
11328;SDS011;5719;42.714;23.732;2023-03-11T09:00:37;0.52;;;0.32;;
11328;SDS011;5719;42.714;23.732;2023-03-11T09:03:05;1.60;;;0.50;;
11328;SDS011;5719;42.714;23.732;2023-03-11T09:05:32;0.50;;;0.40;;
11328;SDS011;5719;42.714;23.732;2023-03-11T09:07:59;0.57;;;0.50;;
11328;SDS011;5719;42.714;23.732;2023-03-11T09:10:28;0.43;;;0.40;;
11328;SDS011;5719;42.714;23.732;2023-03-11T09:12:54;3.20;;;0.63;;
11328;SDS011;5719;42.714;23.732;2023-03-11T09:15:21;0.70;;;0.70;;
11328;SDS011;5719;42.714;23.732;2023-03-11T09:17:48;0.47;;;0.47;;
11328;SDS011;5719;42.714;23.732;2023-03-11T09:20:17;0.88;;;0.88;;
11328;SDS011;5719;42.714;23.732;2023-03-11T09:22:44;0.80;;;0.50;;
11328;SDS011;5719;42.714;23.732;2023-03-11T09:25:11;1.15;;;0.40;;
11328;SDS011;5719;42.714;23.732;2023-03-11T09:27:38;1.08;;;0.50;;
11328;SDS011;5719;42.714;23.732;2023-03-11T09:30:06;0.50;;;0.50;;
11328;SDS011;5719;42.714;23.732;2023-03-11T09:32:34;0.90;;;0.90;;
11328;SDS011;5719;42.714;23.732;2023-03-11T09:35:01;5.38;;;1.05;;
11328;SDS011;5719;42.714;23.732;2023-03-11T09:37:29;0.40;;;0.40;;
11328;SDS011;5719;42.714;23.732;2023-03-11T09:39:56;0.40;;;0.40;;
11328;SDS011;5719;42.714;23.732;2023-03-11T09:42:24;1.98;;;0.60;;
11328;SDS011;5719;42.714;23.732;2023-03-11T09:44:59;2.00;;;0.75;;
11328;SDS011;5719;42.714;23.732;2023-03-11T09:47:32;3.47;;;0.90;;
11328;SDS011;5719;42.714;23.732;2023-03-11T09:50:11;0.88;;;0.50;;
11328;SDS011;5719;42.714;23.732;2023-03-11T09:52:56;0.95;;;0.85;;
11328;SDS011;5719;42.714;23.732;2023-03-11T09:55:31;2.23;;;0.63;;
11328;SDS011;5719;42.714;23.732;2023-03-11T09:58:03;1.15;;;0.60;;
11328;SDS011;5719;42.714;23.732;2023-03-11T10:00:36;2.15;;;0.60;;
11328;SDS011;5719;42.714;23.732;2023-03-11T10:03:05;1.38;;;0.40;;
11328;SDS011;5719;42.714;23.732;2023-03-11T10:05:36;0.88;;;0.70;;
11328;SDS011;5719;42.714;23.732;2023-03-11T10:08:07;1.23;;;0.95;;
11328;SDS011;5719;42.714;23.732;2023-03-11T10:10:44;1.25;;;0.65;;
11328;SDS011;5719;42.714;23.732;2023-03-11T10:13:17;0.77;;;0.77;;
11328;SDS011;5719;42.714;23.732;2023-03-11T10:15:54;1.67;;;0.77;;
11328;SDS011;5719;42.714;23.732;2023-03-11T10:18:33;0.90;;;0.65;;
11328;SDS011;5719;42.714;23.732;2023-03-11T10:21:08;1.40;;;0.63;;
11328;SDS011;5719;42.714;23.732;2023-03-11T10:23:53;0.60;;;0.60;;
11328;SDS011;5719;42.714;23.732;2023-03-11T10:26:28;2.72;;;0.70;;
11328;SDS011;5719;42.714;23.732;2023-03-11T10:29:00;1.23;;;0.80;;
11328;SDS011;5719;42.714;23.732;2023-03-11T10:31:34;0.55;;;0.50;;
11328;SDS011;5719;42.714;23.732;2023-03-11T10:34:09;0.68;;;0.57;;
11328;SDS011;5719;42.714;23.732;2023-03-11T10:36:45;4.28;;;0.75;;
11328;SDS011;5719;42.714;23.732;2023-03-11T10:39:20;0.75;;;0.63;;
11328;SDS011;5719;42.714;23.732;2023-03-11T10:41:49;0.82;;;0.57;;
11328;SDS011;5719;42.714;23.732;2023-03-11T10:44:21;1.90;;;0.50;;
11328;SDS011;5719;42.714;23.732;2023-03-11T10:46:51;1.40;;;0.50;;
11328;SDS011;5719;42.714;23.732;2023-03-11T10:49:17;1.90;;;0.70;;
11328;SDS011;5719;42.714;23.732;2023-03-11T10:51:45;1.92;;;0.70;;
11328;SDS011;5719;42.714;23.732;2023-03-11T10:54:21;3.28;;;0.90;;
11328;SDS011;5719;42.714;23.732;2023-03-11T10:56:53;0.50;;;0.50;;
11328;SDS011;5719;42.714;23.732;2023-03-11T10:59:23;3.00;;;0.65;;
11328;SDS011;5719;42.714;23.732;2023-03-11T11:01:55;1.73;;;0.80;;
11328;SDS011;5719;42.714;23.732;2023-03-11T11:04:26;1.70;;;0.70;;
11328;SDS011;5719;42.714;23.732;2023-03-11T11:07:08;1.17;;;0.60;;
11328;SDS011;5719;42.714;23.732;2023-03-11T11:09:49;3.70;;;0.90;;
11328;SDS011;5719;42.714;23.732;2023-03-11T11:12:49;3.22;;;1.00;;
11328;SDS011;5719;42.714;23.732;2023-03-11T11:15:25;2.30;;;0.98;;
11328;SDS011;5719;42.714;23.732;2023-03-11T11:17:54;1.45;;;0.93;;
11328;SDS011;5719;42.714;23.732;2023-03-11T11:20:24;1.42;;;0.68;;
11328;SDS011;5719;42.714;23.732;2023-03-11T11:22:54;8.15;;;0.80;;
11328;SDS011;5719;42.714;23.732;2023-03-11T11:25:35;4.68;;;0.82;;
11328;SDS011;5719;42.714;23.732;2023-03-11T11:28:17;2.80;;;1.33;;
11328;SDS011;5719;42.714;23.732;2023-03-11T11:30:53;0.80;;;0.80;;
11328;SDS011;5719;42.714;23.732;2023-03-11T11:33:23;4.72;;;1.33;;
11328;SDS011;5719;42.714;23.732;2023-03-11T11:35:52;1.50;;;0.93;;
11328;SDS011;5719;42.714;23.732;2023-03-11T11:38:21;1.80;;;1.00;;
11328;SDS011;5719;42.714;23.732;2023-03-11T11:40:51;1.40;;;0.88;;
11328;SDS011;5719;42.714;23.732;2023-03-11T11:43:20;2.00;;;0.82;;
11328;SDS011;5719;42.714;23.732;2023-03-11T11:45:54;1.48;;;0.80;;
11328;SDS011;5719;42.714;23.732;2023-03-11T11:48:25;0.77;;;0.68;;
11328;SDS011;5719;42.714;23.732;2023-03-11T11:50:59;1.15;;;0.70;;
11328;SDS011;5719;42.714;23.732;2023-03-11T11:53:35;1.13;;;0.70;;
11328;SDS011;5719;42.714;23.732;2023-03-11T11:56:09;1.98;;;1.38;;
11328;SDS011;5719;42.714;23.732;2023-03-11T11:58:36;1.27;;;0.88;;
11328;SDS011;5719;42.714;23.732;2023-03-11T12:01:07;2.70;;;0.80;;
11328;SDS011;5719;42.714;23.732;2023-03-11T12:03:48;1.75;;;0.65;;
11328;SDS011;5719;42.714;23.732;2023-03-11T12:06:33;1.27;;;0.85;;
11328;SDS011;5719;42.714;23.732;2023-03-11T12:09:11;1.33;;;0.60;;
11328;SDS011;5719;42.714;23.732;2023-03-11T12:11:50;2.20;;;0.63;;
11328;SDS011;5719;42.714;23.732;2023-03-11T12:14:24;1.15;;;0.73;;
11328;SDS011;5719;42.714;23.732;2023-03-11T12:17:01;2.55;;;0.70;;
11328;SDS011;5719;42.714;23.732;2023-03-11T12:19:37;1.83;;;0.60;;
11328;SDS011;5719;42.714;23.732;2023-03-11T12:22:16;1.85;;;0.60;;
11328;SDS011;5719;42.714;23.732;2023-03-11T12:25:16;0.93;;;0.60;;
11328;SDS011;5719;42.714;23.732;2023-03-11T12:27:51;2.58;;;0.75;;
11328;SDS011;5719;42.714;23.732;2023-03-11T12:30:22;1.38;;;0.70;;
11328;SDS011;5719;42.714;23.732;2023-03-11T12:32:53;3.42;;;0.65;;
11328;SDS011;5719;42.714;23.732;2023-03-11T12:35:23;0.57;;;0.57;;
11328;SDS011;5719;42.714;23.732;2023-03-11T12:37:56;1.88;;;0.60;;
11328;SDS011;5719;42.714;23.732;2023-03-11T12:40:46;1.40;;;0.70;;
11328;SDS011;5719;42.714;23.732;2023-03-11T12:43:26;2.05;;;0.63;;
11328;SDS011;5719;42.714;23.732;2023-03-11T12:46:08;2.80;;;0.60;;
11328;SDS011;5719;42.714;23.732;2023-03-11T12:48:41;2.13;;;0.68;;
11328;SDS011;5719;42.714;23.732;2023-03-11T12:56:56;0.80;;;0.80;;
11328;SDS011;5719;42.714;23.732;2023-03-11T13:02:47;2.47;;;0.98;;
11328;SDS011;5719;42.714;23.732;2023-03-11T13:05:30;1.67;;;0.70;;
11328;SDS011;5719;42.714;23.732;2023-03-11T13:08:12;2.85;;;1.20;;
11328;SDS011;5719;42.714;23.732;2023-03-11T13:10:41;1.80;;;0.70;;
11328;SDS011;5719;42.714;23.732;2023-03-11T13:13:27;1.65;;;0.75;;
11328;SDS011;5719;42.714;23.732;2023-03-11T13:15:57;3.35;;;1.20;;
11328;SDS011;5719;42.714;23.732;2023-03-11T13:25:34;1.27;;;0.80;;
11328;SDS011;5719;42.714;23.732;2023-03-11T13:28:14;1.25;;;0.60;;
11328;SDS011;5719;42.714;23.732;2023-03-11T13:30:58;1.20;;;0.65;;
11328;SDS011;5719;42.714;23.732;2023-03-11T13:33:42;1.58;;;0.70;;
11328;SDS011;5719;42.714;23.732;2023-03-11T13:36:19;1.13;;;0.60;;
11328;SDS011;5719;42.714;23.732;2023-03-11T13:39:00;4.90;;;0.73;;
11328;SDS011;5719;42.714;23.732;2023-03-11T13:41:54;3.15;;;1.10;;
11328;SDS011;5719;42.714;23.732;2023-03-11T13:44:26;3.75;;;1.00;;
11328;SDS011;5719;42.714;23.732;2023-03-11T13:46:59;2.55;;;1.00;;
11328;SDS011;5719;42.714;23.732;2023-03-11T13:49:34;5.47;;;1.13;;
11328;SDS011;5719;42.714;23.732;2023-03-11T13:52:08;3.22;;;1.10;;
11328;SDS011;5719;42.714;23.732;2023-03-11T13:54:42;2.33;;;1.20;;
11328;SDS011;5719;42.714;23.732;2023-03-11T14:00:05;2.53;;;1.33;;
11328;SDS011;5719;42.714;23.732;2023-03-11T14:02:42;2.75;;;1.23;;
11328;SDS011;5719;42.714;23.732;2023-03-11T14:05:15;1.45;;;0.93;;
11328;SDS011;5719;42.714;23.732;2023-03-11T14:07:46;0.70;;;0.70;;
11328;SDS011;5719;42.714;23.732;2023-03-11T14:10:26;1.00;;;0.60;;
11328;SDS011;5719;42.714;23.732;2023-03-11T14:13:04;1.17;;;0.70;;
11328;SDS011;5719;42.714;23.732;2023-03-11T14:15:42;0.93;;;0.70;;
11328;SDS011;5719;42.714;23.732;2023-03-11T14:18:29;1.13;;;0.90;;
11328;SDS011;5719;42.714;23.732;2023-03-11T14:20:58;1.70;;;0.70;;
11328;SDS011;5719;42.714;23.732;2023-03-11T14:23:27;0.70;;;0.70;;
11328;SDS011;5719;42.714;23.732;2023-03-11T14:26:02;0.95;;;0.68;;
11328;SDS011;5719;42.714;23.732;2023-03-11T14:28:33;1.55;;;0.52;;
11328;SDS011;5719;42.714;23.732;2023-03-11T14:31:04;0.50;;;0.50;;
11328;SDS011;5719;42.714;23.732;2023-03-11T14:33:31;5.93;;;1.00;;
11328;SDS011;5719;42.714;23.732;2023-03-11T14:36:00;1.90;;;1.50;;
11328;SDS011;5719;42.714;23.732;2023-03-11T14:38:30;2.15;;;1.40;;
11328;SDS011;5719;42.714;23.732;2023-03-11T14:40:58;1.50;;;1.40;;
11328;SDS011;5719;42.714;23.732;2023-03-11T14:43:26;3.65;;;2.67;;
11328;SDS011;5719;42.714;23.732;2023-03-11T14:45:58;4.43;;;2.03;;
11328;SDS011;5719;42.714;23.732;2023-03-11T14:48:28;4.60;;;2.80;;
11328;SDS011;5719;42.714;23.732;2023-03-11T14:51:00;3.13;;;2.10;;
11328;SDS011;5719;42.714;23.732;2023-03-11T14:53:31;7.45;;;2.35;;
11328;SDS011;5719;42.714;23.732;2023-03-11T14:56:04;3.60;;;2.42;;
11328;SDS011;5719;42.714;23.732;2023-03-11T14:58:33;3.28;;;2.55;;
11328;SDS011;5719;42.714;23.732;2023-03-11T15:01:03;3.97;;;2.00;;
11328;SDS011;5719;42.714;23.732;2023-03-11T15:03:36;6.43;;;2.60;;
11328;SDS011;5719;42.714;23.732;2023-03-11T15:06:06;5.55;;;3.03;;
11328;SDS011;5719;42.714;23.732;2023-03-11T15:08:41;7.97;;;4.30;;
11328;SDS011;5719;42.714;23.732;2023-03-11T15:11:18;7.07;;;4.35;;
11328;SDS011;5719;42.714;23.732;2023-03-11T15:13:48;10.63;;;5.40;;
11328;SDS011;5719;42.714;23.732;2023-03-11T15:16:21;4.20;;;2.83;;
11328;SDS011;5719;42.714;23.732;2023-03-11T15:18:57;4.05;;;3.60;;
11328;SDS011;5719;42.714;23.732;2023-03-11T15:21:26;4.65;;;3.42;;
11328;SDS011;5719;42.714;23.732;2023-03-11T15:23:57;3.50;;;2.20;;
11328;SDS011;5719;42.714;23.732;2023-03-11T15:26:27;4.03;;;1.95;;